Time;durP1;ratioP1;P1;durP2;ratioP2;P2;SDS_P1;SDS_P2;PMS_P1;PMS_P2;Temp;Humidity;BMP_temperature;BMP_pressure;BME280_temperature;BME280_humidity;BME280_pressure;Samples;Min_cycle;Max_cycle;Signal;HPM_P1;HPM_P2
2021/12/14 00:02:25;;;;;;;12.87;8.03;;;;;;;0.31;100.00;95088.63;5089827;28;20296;-74
2021/12/14 00:04:59;;;;;;;10.37;6.90;;;;;;;0.35;100.00;95095.03;5090548;28;20310;-74
2021/12/14 00:07:30;;;;;;;11.43;7.10;;;;;;;0.41;100.00;95100.38;5089683;28;20618;-74
2021/12/14 00:10:12;;;;;;;10.13;6.80;;;;;;;0.42;100.00;95093.50;5089359;28;20735;-75
2021/12/14 00:12:53;;;;;;;11.37;7.27;;;;;;;0.42;100.00;95096.06;5089507;28;20235;-76
2021/12/14 00:15:22;;;;;;;13.40;8.37;;;;;;;0.41;100.00;95097.00;5089729;28;20212;-75
2021/12/14 00:17:52;;;;;;;14.60;8.70;;;;;;;0.35;100.00;95095.03;5090157;28;20268;-75
2021/12/14 00:20:25;;;;;;;10.37;7.53;;;;;;;0.31;100.00;95097.09;5089451;28;20236;-79
2021/12/14 00:25:43;;;;;;;11.77;7.07;;;;;;;0.30;100.00;95099.78;5090148;28;20200;-78
2021/12/14 00:28:14;;;;;;;12.83;6.73;;;;;;;0.38;100.00;95113.44;5089479;28;20206;-78
2021/12/14 00:30:44;;;;;;;11.23;6.93;;;;;;;0.29;100.00;95098.97;5088754;28;20288;-77
2021/12/14 00:33:16;;;;;;;11.13;6.60;;;;;;;0.35;100.00;95097.56;5089922;28;20205;-78
2021/12/14 00:35:46;;;;;;;11.50;6.70;;;;;;;0.37;100.00;95104.19;5089689;28;20296;-77
2021/12/14 00:38:21;;;;;;;11.03;7.07;;;;;;;0.22;100.00;95113.28;5089654;28;20201;-77
2021/12/14 00:40:54;;;;;;;9.77;6.40;;;;;;;0.19;100.00;95111.00;5089082;28;20200;-77
2021/12/14 00:43:22;;;;;;;11.17;6.60;;;;;;;0.19;100.00;95105.91;5090178;28;20288;-77
2021/12/14 00:45:51;;;;;;;10.97;6.70;;;;;;;0.27;100.00;95110.28;5089749;28;20600;-77
2021/12/14 00:48:20;;;;;;;10.90;6.57;;;;;;;0.40;100.00;95106.44;5088721;28;20236;-78
2021/12/14 00:50:51;;;;;;;10.17;6.63;;;;;;;0.47;100.00;95110.00;5088581;28;20205;-76
2021/12/14 00:53:23;;;;;;;10.03;6.43;;;;;;;0.45;100.00;95114.47;5088908;28;20204;-78
2021/12/14 00:55:53;;;;;;;11.67;7.93;;;;;;;0.47;100.00;95109.19;5089181;28;20232;-77
2021/12/14 00:58:22;;;;;;;12.70;7.53;;;;;;;0.38;100.00;95104.97;5088188;28;20197;-78
2021/12/14 01:00:55;;;;;;;11.37;6.90;;;;;;;0.44;100.00;95104.38;5088381;28;20248;-77
2021/12/14 01:03:25;;;;;;;11.50;7.10;;;;;;;0.46;100.00;95110.19;5082498;28;20208;-79
2021/12/14 01:05:54;;;;;;;12.07;6.63;;;;;;;0.49;100.00;95108.09;5087891;28;20275;-79
2021/12/14 01:08:28;;;;;;;11.50;7.20;;;;;;;0.50;100.00;95102.06;5089287;28;20203;-78
2021/12/14 01:11:02;;;;;;;11.13;6.93;;;;;;;0.51;100.00;95108.78;5081414;28;20253;-77
2021/12/14 01:13:32;;;;;;;11.57;7.13;;;;;;;0.43;100.00;95101.00;5087961;28;20197;-79
2021/12/14 01:16:14;;;;;;;12.03;7.63;;;;;;;0.52;100.00;95112.13;5088251;28;20246;-79
2021/12/14 01:18:49;;;;;;;12.53;7.23;;;;;;;0.48;100.00;95110.81;5087955;28;20195;-79
2021/12/14 01:21:28;;;;;;;10.13;6.43;;;;;;;0.38;100.00;95110.06;5088435;28;20208;-79
2021/12/14 01:24:05;;;;;;;10.90;6.50;;;;;;;0.33;100.00;95107.16;5083004;28;20305;-78
2021/12/14 01:26:35;;;;;;;9.70;5.93;;;;;;;0.27;100.00;95108.53;5088846;28;20685;-76
2021/12/14 01:29:05;;;;;;;11.77;5.90;;;;;;;0.26;100.00;95111.25;5088375;28;20626;-78
2021/12/14 01:31:37;;;;;;;11.10;6.90;;;;;;;0.24;100.00;95100.34;5087624;28;20303;-76
2021/12/14 01:34:09;;;;;;;8.97;5.83;;;;;;;0.20;100.00;95110.06;5086334;28;20602;-76
2021/12/14 01:36:42;;;;;;;10.70;6.80;;;;;;;0.03;100.00;95089.59;5084590;28;20207;-77
2021/12/14 01:39:46;;;;;;;10.97;6.90;;;;;;;0.13;100.00;95103.09;5087894;28;20258;-77
2021/12/14 01:42:18;;;;;;;10.40;6.90;;;;;;;0.24;100.00;95100.34;5088061;28;20200;-77
2021/12/14 01:44:49;;;;;;;11.60;6.47;;;;;;;0.33;100.00;95107.16;5088198;28;20203;-77
2021/12/14 01:47:20;;;;;;;9.87;6.23;;;;;;;0.36;100.00;95096.63;5088407;28;20211;-78
2021/12/14 01:49:49;;;;;;;11.27;6.83;;;;;;;0.39;100.00;95104.81;5088307;28;20651;-77
2021/12/14 01:52:20;;;;;;;11.43;7.97;;;;;;;0.44;100.00;95112.06;5088439;28;20232;-77
2021/12/14 01:54:56;;;;;;;11.50;7.40;;;;;;;0.48;100.00;95113.38;5087836;28;20243;-76
2021/12/14 01:57:28;;;;;;;12.47;6.87;;;;;;;0.47;100.00;95109.19;5088817;28;20222;-78
2021/12/14 01:59:58;;;;;;;15.63;7.47;;;;;;;0.48;100.00;95116.75;5088032;28;20196;-77
2021/12/14 02:02:33;;;;;;;12.03;7.57;;;;;;;0.52;100.00;95101.91;5088783;28;20207;-77
2021/12/14 02:05:06;;;;;;;11.50;7.23;;;;;;;0.53;100.00;95113.75;5088618;28;20200;-76
2021/12/14 02:07:35;;;;;;;13.33;7.70;;;;;;;0.53;100.00;95100.97;5081199;28;20228;-76
2021/12/14 02:10:12;;;;;;;12.87;7.30;;;;;;;0.50;100.00;95108.91;5087241;28;20229;-76
2021/12/14 02:12:42;;;;;;;12.63;7.00;;;;;;;0.35;100.00;95093.28;5089062;28;20207;-76
2021/12/14 02:15:16;;;;;;;14.07;8.43;;;;;;;0.46;100.00;95102.50;5091692;28;20208;-76
2021/12/14 02:17:47;;;;;;;12.17;7.80;;;;;;;0.48;100.00;95103.97;5092249;28;20684;-76
2021/12/14 02:20:20;;;;;;;13.43;7.70;;;;;;;0.50;100.00;95106.34;5091446;28;20205;-78
2021/12/14 02:22:51;;;;;;;14.53;8.77;;;;;;;0.56;100.00;95104.03;5091357;28;20212;-76
2021/12/14 02:25:19;;;;;;;13.47;7.93;;;;;;;0.59;100.00;95102.94;5091954;28;21224;-78
2021/12/14 02:27:51;;;;;;;11.70;7.20;;;;;;;0.61;100.00;95107.91;5086976;28;20201;-76
2021/12/14 02:30:24;;;;;;;12.27;7.67;;;;;;;0.56;100.00;95116.00;5091071;28;20711;-76
2021/12/14 02:32:51;;;;;;;14.83;9.00;;;;;;;0.53;100.00;95116.28;5085164;28;20928;-77
2021/12/14 02:35:22;;;;;;;16.00;9.90;;;;;;;0.61;100.00;95111.25;5092059;28;20215;-78
2021/12/14 02:37:55;;;;;;;15.37;9.97;;;;;;;0.65;100.00;95107.47;5092235;28;20293;-77
2021/12/14 02:40:32;;;;;;;12.23;7.80;;;;;;;0.78;100.00;95113.00;5092061;28;20246;-77
2021/12/14 02:43:04;;;;;;;16.73;9.50;;;;;;;0.80;100.00;95116.25;5090987;28;20207;-78
2021/12/14 02:45:34;;;;;;;13.87;8.97;;;;;;;0.77;100.00;95113.97;5091648;28;20200;-78
2021/12/14 02:48:08;;;;;;;13.87;9.00;;;;;;;0.72;100.00;95121.28;5091692;28;20282;-78
2021/12/14 02:50:37;;;;;;;16.63;10.30;;;;;;;0.71;100.00;95122.22;5091619;28;20295;-78
2021/12/14 02:53:08;;;;;;;16.37;10.23;;;;;;;0.67;100.00;95127.75;5092505;28;20208;-78
2021/12/14 02:55:38;;;;;;;15.10;8.53;;;;;;;0.72;100.00;95126.41;5092079;28;20232;-78
2021/12/14 02:58:08;;;;;;;14.83;9.17;;;;;;;0.61;100.00;95120.69;5092329;28;20205;-78
2021/12/14 03:00:41;;;;;;;15.87;9.30;;;;;;;0.65;100.00;95122.00;5086938;28;20262;-79
2021/12/14 03:03:11;;;;;;;15.07;10.07;;;;;;;0.74;100.00;95127.06;5091265;28;20246;-78
2021/12/14 03:05:42;;;;;;;16.10;9.33;;;;;;;0.69;100.00;95131.81;5091522;28;20238;-78
2021/12/14 03:08:19;;;;;;;17.40;10.90;;;;;;;0.73;100.00;95128.00;5091502;28;20201;-79
2021/12/14 03:10:58;;;;;;;21.43;12.20;;;;;;;0.68;100.00;95102.06;5090819;28;20228;-78
2021/12/14 03:13:33;;;;;;;14.27;8.70;;;;;;;0.77;100.00;95129.31;5091294;28;20200;-77
2021/12/14 03:16:04;;;;;;;15.40;9.97;;;;;;;0.80;100.00;95123.91;5090512;28;20206;-77
2021/12/14 03:18:39;;;;;;;14.10;9.90;;;;;;;0.83;100.00;95133.03;5090589;28;20211;-78
2021/12/14 03:21:10;;;;;;;13.73;8.47;;;;;;;0.85;100.00;95139.63;5088770;28;20211;-78
2021/12/14 03:23:45;;;;;;;16.07;9.10;;;;;;;0.73;100.00;95132.28;5086731;28;20201;-77
2021/12/14 03:26:17;;;;;;;11.97;8.43;;;;;;;0.71;100.00;95134.19;5084084;28;20200;-77
2021/12/14 03:28:49;;;;;;;16.17;9.87;;;;;;;0.72;100.00;95128.16;5084996;28;20664;-77
2021/12/14 03:31:29;;;;;;;13.73;8.30;;;;;;;0.61;100.00;95130.94;5089331;28;20683;-77
2021/12/14 03:34:02;;;;;;;13.63;8.17;;;;;;;0.47;100.00;95122.78;5087798;28;21124;-77
2021/12/14 03:36:34;;;;;;;16.53;8.43;;;;;;;0.45;100.00;95116.22;5088370;28;20228;-77
2021/12/14 03:39:11;;;;;;;16.53;8.60;;;;;;;0.42;100.00;95126.75;5075613;28;20205;-78
2021/12/14 03:41:46;;;;;;;16.63;9.33;;;;;;;0.43;100.00;95125.78;5091835;28;20204;-78
2021/12/14 03:44:19;;;;;;;13.00;8.33;;;;;;;0.14;100.00;95132.81;5091288;28;20204;-77
2021/12/14 03:46:52;;;;;;;14.57;8.93;;;;;;;0.16;100.00;95121.50;5091954;28;20200;-77
2021/12/14 03:49:22;;;;;;;14.50;9.27;;;;;;;0.09;100.00;95120.47;5078071;28;20216;-78
2021/12/14 03:51:51;;;;;;;16.17;9.80;;;;;;;0.09;100.00;95124.78;5091507;28;20211;-78
2021/12/14 03:54:21;;;;;;;15.67;9.63;;;;;;;0.16;100.00;95126.63;5090191;28;20236;-77
2021/12/14 03:56:50;;;;;;;15.70;9.33;;;;;;;0.19;100.00;95134.00;5085378;28;20205;-76
2021/12/14 03:59:20;;;;;;;17.90;11.67;;;;;;;0.26;100.00;95132.47;5091071;28;20292;-77
2021/12/14 04:01:52;;;;;;;21.10;11.07;;;;;;;0.36;100.00;95140.09;5083662;28;20198;-77
2021/12/14 04:04:24;;;;;;;17.63;9.57;;;;;;;0.31;100.00;95140.53;5083905;28;20213;-78
2021/12/14 04:06:55;;;;;;;16.47;10.53;;;;;;;0.25;100.00;95141.09;5089039;28;20192;-72
2021/12/14 04:09:31;;;;;;;16.70;10.83;;;;;;;0.03;100.00;95121.03;5082882;28;20316;-72
2021/12/14 04:12:01;;;;;;;17.27;10.33;;;;;;;0.25;100.00;95140.28;5089589;28;20204;-72
2021/12/14 04:14:31;;;;;;;16.57;10.07;;;;;;;0.28;100.00;95140.00;5088937;28;20201;-72
2021/12/14 04:17:02;;;;;;;20.03;10.57;;;;;;;0.33;100.00;95140.38;5089412;28;20199;-72
2021/12/14 04:19:31;;;;;;;14.97;9.53;;;;;;;0.38;100.00;95145.84;5089722;28;20201;-72
2021/12/14 04:22:06;;;;;;;20.37;12.03;;;;;;;0.35;100.00;95149.50;5089848;28;20240;-72
2021/12/14 04:24:39;;;;;;;23.10;13.13;;;;;;;0.44;100.00;95143.53;5090721;28;20235;-72
2021/12/14 04:27:10;;;;;;;21.47;13.10;;;;;;;0.50;100.00;95150.63;5089432;28;20714;-72
2021/12/14 04:29:38;;;;;;;23.93;14.23;;;;;;;0.54;100.00;95149.41;5088878;28;20670;-72
2021/12/14 04:32:12;;;;;;;29.83;16.90;;;;;;;0.56;100.00;95162.03;5089088;28;20236;-73
2021/12/14 04:34:41;;;;;;;28.43;15.90;;;;;;;0.58;100.00;95158.38;5088992;28;20305;-71
2021/12/14 04:37:11;;;;;;;36.70;20.87;;;;;;;0.65;100.00;95160.34;5088864;28;20200;-71
2021/12/14 04:39:44;;;;;;;37.23;21.20;;;;;;;0.65;100.00;95157.78;5073914;28;20208;-73
2021/12/14 04:53:39;;;;;;;26.47;15.47;;;;;;;0.74;100.00;95156.94;5088730;28;20199;-72
2021/12/14 04:56:11;;;;;;;26.33;14.73;;;;;;;0.76;100.00;95160.13;5084472;28;20319;-71
2021/12/14 04:58:44;;;;;;;30.00;15.63;;;;;;;0.68;100.00;95163.44;5088545;28;20207;-71
2021/12/14 05:01:14;;;;;;;34.47;17.73;;;;;;;0.71;100.00;95163.16;5088070;28;20203;-71
2021/12/14 05:03:47;;;;;;;33.40;17.60;;;;;;;0.72;100.00;95169.06;5088266;28;20955;-71
2021/12/14 05:06:18;;;;;;;20.80;12.13;;;;;;;0.65;100.00;95160.34;5088903;28;20215;-73
2021/12/14 05:11:37;;;;;;;31.87;17.07;;;;;;;0.53;100.00;95165.69;5083112;28;20229;-72
2021/12/14 05:14:11;;;;;;;28.03;15.93;;;;;;;0.56;100.00;95160.28;5088228;28;20236;-72
2021/12/14 05:16:42;;;;;;;31.10;15.57;;;;;;;0.64;100.00;95167.22;5088178;28;20227;-72
2021/12/14 05:19:13;;;;;;;24.33;13.53;;;;;;;0.67;100.00;95173.78;5088217;28;20200;-71
2021/12/14 05:21:47;;;;;;;32.97;17.17;;;;;;;0.68;100.00;95160.06;5087297;28;20766;-71
2021/12/14 05:24:21;;;;;;;29.17;16.10;;;;;;;0.67;100.00;95176.34;5087333;28;20305;-71
2021/12/14 05:26:58;;;;;;;26.40;15.40;;;;;;;0.70;100.00;95165.81;5087486;28;20210;-72
2021/12/14 05:29:27;;;;;;;28.70;15.40;;;;;;;0.64;100.00;95177.44;5087909;28;20196;-72
2021/12/14 05:31:57;;;;;;;22.90;12.93;;;;;;;0.57;100.00;95166.19;5087188;28;20657;-72
2021/12/14 05:34:29;;;;;;;27.17;15.97;;;;;;;0.66;100.00;95178.13;5087670;28;20201;-71
2021/12/14 05:36:58;;;;;;;28.37;14.70;;;;;;;0.64;100.00;95174.88;5085923;28;20738;-73
2021/12/14 05:39:45;;;;;;;24.13;13.80;;;;;;;0.58;100.00;95178.00;5087196;28;20196;-72
2021/12/14 05:45:09;;;;;;;18.77;10.50;;;;;;;0.44;100.00;95178.50;5087524;28;20965;-71
2021/12/14 05:47:44;;;;;;;15.97;9.53;;;;;;;0.50;100.00;95173.63;5084961;28;20254;-72
2021/12/14 05:50:18;;;;;;;17.83;10.80;;;;;;;0.42;100.00;95173.56;5086807;28;20224;-73
2021/12/14 05:52:47;;;;;;;21.53;12.07;;;;;;;0.43;100.00;95177.69;5090767;28;20196;-73
2021/12/14 05:55:16;;;;;;;21.77;13.00;;;;;;;0.51;100.00;95182.13;5090701;28;20298;-72
2021/12/14 05:57:46;;;;;;;19.37;11.47;;;;;;;0.56;100.00;95185.03;5091162;28;20908;-72
2021/12/14 06:00:18;;;;;;;22.87;12.10;;;;;;;0.62;100.00;95192.13;5090951;28;20204;-72
2021/12/14 06:02:47;;;;;;;28.43;14.67;;;;;;;0.67;100.00;95201.91;5091464;28;20207;-72
2021/12/14 06:05:19;;;;;;;24.57;13.43;;;;;;;0.69;100.00;95205.16;5088339;28;20273;-72
2021/12/14 06:07:49;;;;;;;31.00;15.33;;;;;;;0.77;100.00;95212.91;5091611;28;20223;-72
2021/12/14 06:10:21;;;;;;;29.33;15.03;;;;;;;0.78;100.00;95206.84;5087760;28;20208;-71
2021/12/14 06:12:51;;;;;;;34.60;16.47;;;;;;;0.83;100.00;95213.13;5091711;28;20282;-71
2021/12/14 06:15:25;;;;;;;35.97;16.70;;;;;;;0.82;100.00;95203.84;5092339;28;20304;-72
2021/12/14 06:17:54;;;;;;;29.13;14.73;;;;;;;0.84;100.00;95214.72;5091101;28;20651;-72
2021/12/14 06:20:24;;;;;;;43.57;18.63;;;;;;;0.90;100.00;95209.03;5090751;28;20212;-72
2021/12/14 06:22:54;;;;;;;32.37;15.87;;;;;;;0.94;100.00;95207.81;5090830;28;20234;-72
2021/12/14 06:25:25;;;;;;;31.53;16.23;;;;;;;0.91;100.00;95209.84;5078453;28;20193;-72
2021/12/14 06:27:59;;;;;;;37.23;17.17;;;;;;;0.82;100.00;95211.53;5085930;28;20205;-72
2021/12/14 06:30:30;;;;;;;27.57;15.63;;;;;;;0.83;100.00;95212.31;5086458;28;20231;-72
2021/12/14 06:33:02;;;;;;;25.97;14.70;;;;;;;0.83;100.00;95218.25;5085331;28;20648;-72
2021/12/14 06:35:35;;;;;;;26.77;13.03;;;;;;;0.80;100.00;95223.66;5091203;28;20197;-72
2021/12/14 06:38:25;;;;;;;29.93;15.37;;;;;;;0.80;100.00;95222.84;5091833;28;20193;-72
2021/12/14 06:41:15;;;;;;;37.53;20.23;;;;;;;0.89;100.00;95224.53;5090953;28;20189;-73
2021/12/14 06:43:49;;;;;;;30.20;18.17;;;;;;;0.93;100.00;95223.28;5088051;28;20201;-71
2021/12/14 06:46:19;;;;;;;32.93;17.10;;;;;;;0.99;100.00;95230.38;5089208;28;20189;-72
2021/12/14 06:48:50;;;;;;;31.73;18.60;;;;;;;1.02;100.00;95228.34;5090190;28;20203;-71
2021/12/14 06:51:21;;;;;;;35.93;18.67;;;;;;;0.99;100.00;95231.19;5091336;28;20221;-71
2021/12/14 06:53:52;;;;;;;34.47;19.37;;;;;;;1.06;100.00;95239.91;5092057;28;20250;-70
2021/12/14 06:56:24;;;;;;;34.17;20.80;;;;;;;1.17;100.00;95240.63;5091835;28;20212;-71
2021/12/14 06:58:58;;;;;;;39.90;21.37;;;;;;;0.99;100.00;95232.94;5091536;28;20228;-72
2021/12/14 07:01:30;;;;;;;33.90;18.77;;;;;;;1.03;100.00;95244.50;5091087;28;20284;-71
2021/12/14 07:04:00;;;;;;;33.70;19.27;;;;;;;1.02;100.00;95243.69;5091105;28;20209;-71
2021/12/14 07:06:31;;;;;;;41.73;23.50;;;;;;;1.04;100.00;95251.22;5086105;28;20192;-71
2021/12/14 07:09:06;;;;;;;50.20;27.27;;;;;;;1.04;100.00;95251.22;5091628;28;20196;-71
2021/12/14 07:11:36;;;;;;;61.30;38.13;;;;;;;1.13;100.00;95247.78;5091236;28;20216;-71
2021/12/14 07:14:22;;;;;;;47.30;27.60;;;;;;;1.15;100.00;95254.38;5091718;28;20262;-71
2021/12/14 07:16:55;;;;;;;53.23;28.87;;;;;;;1.05;100.00;95250.28;5091013;28;20200;-71
2021/12/14 07:19:43;;;;;;;51.50;28.47;;;;;;;1.22;100.00;95261.47;5091488;28;20251;-71
2021/12/14 07:22:34;;;;;;;46.93;25.47;;;;;;;1.21;100.00;95263.25;5092351;28;20243;-71
2021/12/14 07:25:06;;;;;;;57.17;29.57;;;;;;;1.28;100.00;95256.56;5091323;28;20317;-71
2021/12/14 07:27:38;;;;;;;49.50;27.30;;;;;;;1.27;100.00;95266.97;5091610;28;20258;-71
2021/12/14 07:30:25;;;;;;;61.53;32.47;;;;;;;1.30;100.00;95271.81;5090740;28;20200;-72
2021/12/14 07:32:58;;;;;;;45.53;25.47;;;;;;;1.21;100.00;95270.94;5084660;28;20273;-71
2021/12/14 07:35:40;;;;;;;54.03;29.23;;;;;;;1.22;100.00;95274.25;5090564;28;20212;-73
2021/12/14 07:38:28;;;;;;;62.33;32.73;;;;;;;1.31;100.00;95273.38;5087489;28;20266;-71
2021/12/14 07:41:02;;;;;;;58.87;32.13;;;;;;;1.36;100.00;95277.13;5090275;28;20254;-71
2021/12/14 07:43:32;;;;;;;43.57;24.17;;;;;;;1.32;100.00;95270.69;5084216;28;20196;-71
2021/12/14 07:46:02;;;;;;;39.47;22.53;;;;;;;1.33;100.00;95272.28;5090685;28;20244;-71
2021/12/14 07:48:47;;;;;;;43.37;23.93;;;;;;;1.37;100.00;95268.50;5090676;28;20205;-72
2021/12/14 07:51:17;;;;;;;41.40;21.73;;;;;;;1.23;100.00;95275.88;5090230;28;20215;-71
2021/12/14 07:53:47;;;;;;;31.33;17.33;;;;;;;1.00;100.00;95272.94;5091006;28;20200;-72
2021/12/14 07:56:32;;;;;;;32.80;18.93;;;;;;;1.01;100.00;95272.78;5050030;28;20202;-72
2021/12/14 07:59:01;;;;;;;29.93;17.27;;;;;;;0.93;100.00;95272.69;5050106;28;20206;-71
2021/12/14 08:01:30;;;;;;;31.40;18.27;;;;;;;0.79;100.00;95270.63;5046725;28;20201;-72
2021/12/14 08:04:07;;;;;;;33.60;18.27;;;;;;;0.64;100.00;95282.28;5049770;28;20292;-71
2021/12/14 08:06:44;;;;;;;30.80;17.67;;;;;;;0.64;100.00;95281.47;5050797;28;20289;-72
2021/12/14 08:09:18;;;;;;;32.57;17.60;;;;;;;0.84;100.00;95283.78;5050337;28;20314;-72
2021/12/14 08:11:48;;;;;;;37.23;19.93;;;;;;;1.02;100.00;95292.31;5049627;28;20273;-72
2021/12/14 08:14:27;;;;;;;38.67;22.00;;;;;;;0.95;100.00;95293.81;5049984;28;20205;-71
2021/12/14 08:17:00;;;;;;;38.57;23.27;;;;;;;1.05;100.00;95298.88;5049561;28;20261;-72
2021/12/14 08:19:36;;;;;;;35.10;21.00;;;;;;;1.10;100.00;95289.03;5050311;28;20271;-71
2021/12/14 08:22:09;;;;;;;42.83;23.70;;;;;;;1.15;100.00;95295.31;5045617;28;20202;-71
2021/12/14 08:24:37;;;;;;;46.73;25.10;;;;;;;1.03;100.00;95282.88;5048892;28;20198;-72
2021/12/14 08:27:09;;;;;;;46.97;24.80;;;;;;;1.25;100.00;95291.88;5049578;28;20288;-72
2021/12/14 08:29:38;;;;;;;44.00;24.53;;;;;;;1.24;100.00;95288.53;5049929;28;20206;-77
2021/12/14 08:32:14;;;;;;;41.80;24.83;;;;;;;1.15;100.00;95287.63;5049638;28;20835;-77
2021/12/14 08:34:46;;;;;;;46.87;26.10;;;;;;;1.19;100.00;95290.72;5050877;28;20204;-76
2021/12/14 08:37:18;;;;;;;47.17;26.53;;;;;;;1.23;100.00;95297.16;5049893;28;20293;-80
2021/12/14 08:39:50;;;;;;;42.70;24.67;;;;;;;1.13;100.00;95297.22;5048627;28;20202;-77
2021/12/14 08:42:26;;;;;;;36.70;21.57;;;;;;;1.11;100.00;95283.78;5049032;28;20264;-76
2021/12/14 08:45:00;;;;;;;41.47;22.90;;;;;;;1.28;100.00;95281.38;5049404;28;20324;-76
2021/12/14 08:47:34;;;;;;;37.87;22.37;;;;;;;1.36;100.00;95284.81;5043435;28;20686;-76
2021/12/14 08:50:06;;;;;;;38.03;21.83;;;;;;;1.33;100.00;95282.53;5032652;28;20285;-76
2021/12/14 08:52:35;;;;;;;49.83;26.03;;;;;;;1.30;100.00;95285.38;5049116;28;21103;-76
2021/12/14 08:55:07;;;;;;;49.37;26.37;;;;;;;1.25;100.00;95285.03;5069686;28;20232;-75
2021/12/14 08:57:37;;;;;;;37.23;20.77;;;;;;;1.28;100.00;95277.06;5089095;28;20201;-77
2021/12/14 09:00:12;;;;;;;41.47;22.60;;;;;;;1.27;100.00;95279.78;5090060;28;20640;-75
2021/12/14 09:02:45;;;;;;;47.07;26.03;;;;;;;1.23;100.00;95268.19;5068941;28;20625;-76
2021/12/14 09:05:17;;;;;;;39.30;21.63;;;;;;;1.29;100.00;95273.56;5087613;28;20197;-75
2021/12/14 09:07:46;;;;;;;44.63;23.60;;;;;;;1.31;100.00;95270.84;5088136;28;20201;-75
2021/12/14 09:10:20;;;;;;;41.37;23.10;;;;;;;1.28;100.00;95273.69;5089262;28;20213;-81
2021/12/14 09:12:50;;;;;;;39.03;21.87;;;;;;;1.33;100.00;95279.19;5089330;28;20690;-75
2021/12/14 09:15:23;;;;;;;39.80;21.30;;;;;;;1.40;100.00;95262.28;5083004;28;20200;-81
2021/12/14 09:17:54;;;;;;;37.23;19.83;;;;;;;1.47;100.00;95266.66;5088785;28;20234;-75
2021/12/14 09:20:26;;;;;;;37.30;20.13;;;;;;;1.48;100.00;95267.47;5088661;28;20212;-74
2021/12/14 09:22:59;;;;;;;43.97;24.60;;;;;;;1.24;100.00;95245.00;5088071;28;21026;-75
2021/12/14 09:25:30;;;;;;;36.33;20.57;;;;;;;1.41;100.00;95258.78;5089309;28;20204;-75
2021/12/14 09:27:59;;;;;;;44.30;23.77;;;;;;;1.38;100.00;95267.56;5088823;28;20200;-75
2021/12/14 09:30:36;;;;;;;36.40;21.93;;;;;;;1.53;100.00;95262.72;5082868;28;20284;-75
2021/12/14 09:33:07;;;;;;;30.63;18.83;;;;;;;1.68;100.00;95256.91;5088136;28;20235;-75
2021/12/14 09:35:37;;;;;;;44.47;26.03;;;;;;;1.69;100.00;95255.16;5088853;28;20204;-74
2021/12/14 09:38:09;;;;;;;46.93;27.63;;;;;;;1.80;100.00;95256.66;5089238;28;20204;-75
2021/12/14 09:40:41;;;;;;;55.47;32.50;;;;;;;1.93;100.00;95255.34;5088446;28;20205;-76
2021/12/14 09:43:09;;;;;;;81.47;43.13;;;;;;;2.02;100.00;95249.28;5081393;28;20623;-74
2021/12/14 09:45:43;;;;;;;60.10;35.83;;;;;;;2.14;100.00;95245.53;5088327;28;20205;-76
2021/12/14 09:48:15;;;;;;;59.60;34.57;;;;;;;2.27;100.00;95245.94;5088325;28;20673;-75
2021/12/14 09:50:45;;;;;;;55.20;30.30;;;;;;;2.32;100.00;95247.22;5087880;28;20324;-75
2021/12/14 09:53:16;;;;;;;55.30;29.87;;;;;;;2.07;100.00;95247.09;5087479;28;20225;-75
2021/12/14 09:55:48;;;;;;;40.93;22.70;;;;;;;1.98;100.00;95245.44;5087760;28;20319;-74
2021/12/14 09:58:20;;;;;;;34.93;20.07;;;;;;;1.75;100.00;95241.75;5081991;28;20205;-74
2021/12/14 10:00:56;;;;;;;41.97;24.50;;;;;;;1.83;100.00;95241.00;5088338;28;20203;-75
2021/12/14 10:03:26;;;;;;;42.83;25.50;;;;;;;1.83;100.00;95230.75;5088738;28;20204;-75
2021/12/14 10:05:57;;;;;;;45.27;25.50;;;;;;;1.88;100.00;95226.78;5087439;28;20664;-75
2021/12/14 10:08:30;;;;;;;54.03;26.97;;;;;;;1.99;100.00;95239.34;5086941;28;20682;-75
2021/12/14 10:11:04;;;;;;;47.73;27.53;;;;;;;1.91;100.00;95228.22;5088263;28;20661;-75
2021/12/14 10:13:34;;;;;;;49.17;28.47;;;;;;;2.00;100.00;95235.03;5085831;28;20396;-76
2021/12/14 10:16:04;;;;;;;52.07;29.60;;;;;;;1.90;100.00;95227.47;5088070;28;20202;-76
2021/12/14 10:18:37;;;;;;;48.40;27.63;;;;;;;2.09;100.00;95240.06;5087689;28;20189;-77
2021/12/14 10:21:09;;;;;;;46.03;25.57;;;;;;;2.15;100.00;95239.44;5087138;28;20293;-76
2021/12/14 10:23:38;;;;;;;44.73;24.60;;;;;;;2.19;100.00;95234.81;5088306;28;20322;-76
2021/12/14 10:26:06;;;;;;;47.30;25.60;;;;;;;2.22;100.00;95234.53;5088827;28;20243;-76
2021/12/14 10:28:36;;;;;;;48.77;25.50;;;;;;;2.20;100.00;95234.66;5085090;28;20211;-76
2021/12/14 10:31:07;;;;;;;42.10;24.23;;;;;;;2.21;100.00;95228.59;5086390;28;20213;-76
2021/12/14 10:33:42;;;;;;;38.20;20.83;;;;;;;2.20;100.00;95231.28;5084804;28;20275;-76
2021/12/14 10:36:23;;;;;;;37.53;22.13;;;;;;;2.22;100.00;95231.97;5091547;28;20206;-76
2021/12/14 10:39:06;;;;;;;40.37;24.20;;;;;;;2.26;100.00;95230.69;5088849;28;20200;-76
2021/12/14 10:44:20;;;;;;;41.60;24.00;;;;;;;2.34;100.00;95227.38;5092620;28;20247;-76
2021/12/14 10:46:50;;;;;;;39.93;24.80;;;;;;;2.34;100.00;95228.16;5091268;28;20206;-77
2021/12/14 10:49:22;;;;;;;45.43;26.33;;;;;;;2.40;100.00;95224.16;5091295;28;20263;-77
2021/12/14 10:51:57;;;;;;;38.03;22.67;;;;;;;2.42;100.00;95228.22;5091947;28;20303;-76
2021/12/14 10:54:25;;;;;;;50.63;28.83;;;;;;;2.42;100.00;95222.28;5088547;28;20237;-76
2021/12/14 10:56:59;;;;;;;52.27;31.30;;;;;;;2.44;100.00;95225.47;5086337;28;20199;-76
2021/12/14 10:59:31;;;;;;;50.80;28.97;;;;;;;2.49;100.00;95220.69;5088038;28;20212;-76
2021/12/14 11:01:58;;;;;;;44.73;24.80;;;;;;;2.51;100.00;95221.34;5086073;28;20201;-78
2021/12/14 11:04:37;;;;;;;38.97;22.67;;;;;;;2.24;100.00;95222.34;5089329;28;20631;-79
2021/12/14 11:07:07;;;;;;;37.03;20.67;;;;;;;2.18;100.00;95217.81;5092197;28;20204;-76
2021/12/14 11:09:42;;;;;;;37.63;21.77;;;;;;;2.22;100.00;95214.78;5091952;28;20214;-76
2021/12/14 11:12:18;;;;;;;41.37;23.03;;;;;;;2.29;100.00;95215.81;5087617;28;20227;-77
2021/12/14 11:14:47;;;;;;;43.70;24.43;;;;;;;2.20;100.00;95211.59;5093696;28;20263;-77
2021/12/14 11:20:06;;;;;;;51.53;26.07;;;;;;;2.12;100.00;95208.19;5088262;28;20240;-76
2021/12/14 11:22:44;;;;;;;43.90;24.53;;;;;;;2.13;100.00;95199.53;5091583;28;20205;-78
2021/12/14 11:25:16;;;;;;;54.10;30.00;;;;;;;2.17;100.00;95200.84;5091269;28;20201;-77
2021/12/14 11:27:47;;;;;;;43.17;24.70;;;;;;;2.13;100.00;95202.91;5089947;28;20285;-77
2021/12/14 11:30:21;;;;;;;40.00;22.07;;;;;;;1.89;100.00;95192.53;5090553;28;20717;-76
2021/12/14 11:33:03;;;;;;;35.67;20.23;;;;;;;1.97;100.00;95202.81;5090489;28;20221;-77
2021/12/14 11:35:33;;;;;;;41.83;21.90;;;;;;;2.03;100.00;95202.22;5088697;28;20207;-76
2021/12/14 11:38:10;;;;;;;31.97;17.57;;;;;;;2.02;100.00;95203.16;5090803;28;20212;-77
2021/12/14 11:40:38;;;;;;;39.43;22.43;;;;;;;1.94;100.00;95197.19;5090768;28;20247;-78
2021/12/14 11:43:15;;;;;;;33.57;19.97;;;;;;;1.99;100.00;95197.56;5089795;28;20565;-77
2021/12/14 11:45:47;;;;;;;35.50;19.83;;;;;;;1.87;100.00;95191.88;5086673;28;20258;-76
2021/12/14 11:48:16;;;;;;;33.93;19.30;;;;;;;1.89;100.00;95205.34;5090866;28;20278;-76
2021/12/14 11:50:48;;;;;;;34.90;20.20;;;;;;;1.66;100.00;95199.09;5084958;28;20222;-76
2021/12/14 11:53:20;;;;;;;33.87;19.30;;;;;;;1.53;100.00;95196.16;5089319;28;20251;-77
2021/12/14 11:55:52;;;;;;;35.73;19.90;;;;;;;1.43;100.00;95192.84;5085918;28;20235;-75
2021/12/14 11:58:26;;;;;;;40.60;21.83;;;;;;;1.49;100.00;95195.63;5089140;28;20213;-75
2021/12/14 12:00:59;;;;;;;46.33;24.67;;;;;;;1.58;100.00;95189.63;5089793;28;20290;-74
2021/12/14 12:03:32;;;;;;;46.70;24.33;;;;;;;1.72;100.00;95188.25;5089721;28;20663;-77
2021/12/14 12:06:08;;;;;;;45.10;23.73;;;;;;;1.83;100.00;95187.19;5086604;28;20200;-75
2021/12/14 12:11:24;;;;;;;50.67;28.20;;;;;;;2.00;100.00;95186.31;5087194;28;20586;-75
2021/12/14 12:13:51;;;;;;;60.33;33.10;;;;;;;2.02;100.00;95187.78;5087025;28;20228;-76